sensor_id;sensor_type;location;lat;lon;timestamp;P1;durP1;ratioP1;P2;durP2;ratioP2
2624;SDS011;1322;53.256;10.386;2022-08-11T00:00:30;5.80;;;3.33;;
2624;SDS011;1322;53.256;10.386;2022-08-11T00:03:05;8.27;;;2.90;;
2624;SDS011;1322;53.256;10.386;2022-08-11T00:05:33;7.60;;;2.60;;
2624;SDS011;1322;53.256;10.386;2022-08-11T00:08:21;4.43;;;2.87;;
2624;SDS011;1322;53.256;10.386;2022-08-11T00:10:52;3.70;;;2.90;;
2624;SDS011;1322;53.256;10.386;2022-08-11T00:13:21;5.93;;;2.90;;
2624;SDS011;1322;53.256;10.386;2022-08-11T00:15:55;4.97;;;2.90;;
2624;SDS011;1322;53.256;10.386;2022-08-11T00:18:21;8.70;;;3.00;;
2624;SDS011;1322;53.256;10.386;2022-08-11T00:20:47;7.20;;;3.10;;
2624;SDS011;1322;53.256;10.386;2022-08-11T00:23:14;4.53;;;2.87;;
2624;SDS011;1322;53.256;10.386;2022-08-11T00:25:43;4.40;;;2.50;;
2624;SDS011;1322;53.256;10.386;2022-08-11T00:28:23;4.87;;;2.63;;
2624;SDS011;1322;53.256;10.386;2022-08-11T00:30:51;4.47;;;3.20;;
2624;SDS011;1322;53.256;10.386;2022-08-11T00:33:22;4.70;;;3.10;;
2624;SDS011;1322;53.256;10.386;2022-08-11T00:35:50;2.83;;;2.53;;
2624;SDS011;1322;53.256;10.386;2022-08-11T00:38:24;4.67;;;3.40;;
2624;SDS011;1322;53.256;10.386;2022-08-11T00:47:04;3.67;;;3.30;;
2624;SDS011;1322;53.256;10.386;2022-08-11T00:52:43;6.53;;;3.47;;
2624;SDS011;1322;53.256;10.386;2022-08-11T01:01:43;3.63;;;2.70;;
2624;SDS011;1322;53.256;10.386;2022-08-11T01:13:13;5.40;;;3.67;;
2624;SDS011;1322;53.256;10.386;2022-08-11T01:49:20;4.40;;;3.30;;
2624;SDS011;1322;53.256;10.386;2022-08-11T01:52:33;8.07;;;3.90;;
2624;SDS011;1322;53.256;10.386;2022-08-11T01:55:06;3.03;;;2.43;;
2624;SDS011;1322;53.256;10.386;2022-08-11T02:00:27;6.10;;;3.57;;
2624;SDS011;1322;53.256;10.386;2022-08-11T02:11:26;11.63;;;3.20;;
2624;SDS011;1322;53.256;10.386;2022-08-11T02:25:29;5.10;;;3.50;;
2624;SDS011;1322;53.256;10.386;2022-08-11T02:34:08;5.77;;;3.13;;
2624;SDS011;1322;53.256;10.386;2022-08-11T02:40:15;6.27;;;3.77;;
2624;SDS011;1322;53.256;10.386;2022-08-11T02:43:07;7.00;;;3.37;;
2624;SDS011;1322;53.256;10.386;2022-08-11T02:59:44;4.43;;;3.60;;
2624;SDS011;1322;53.256;10.386;2022-08-11T03:02:39;4.20;;;3.20;;
2624;SDS011;1322;53.256;10.386;2022-08-11T03:08:03;6.00;;;3.07;;
2624;SDS011;1322;53.256;10.386;2022-08-11T03:13:57;3.40;;;3.10;;
2624;SDS011;1322;53.256;10.386;2022-08-11T03:19:36;8.20;;;3.97;;
2624;SDS011;1322;53.256;10.386;2022-08-11T03:22:22;7.03;;;4.33;;
2624;SDS011;1322;53.256;10.386;2022-08-11T03:25:00;7.40;;;3.73;;
2624;SDS011;1322;53.256;10.386;2022-08-11T03:30:12;3.97;;;3.57;;
2624;SDS011;1322;53.256;10.386;2022-08-11T03:36:09;4.70;;;3.13;;
2624;SDS011;1322;53.256;10.386;2022-08-11T03:41:22;5.07;;;3.30;;
2624;SDS011;1322;53.256;10.386;2022-08-11T04:03:00;5.73;;;3.60;;
2624;SDS011;1322;53.256;10.386;2022-08-11T04:09:10;9.83;;;3.93;;
2624;SDS011;1322;53.256;10.386;2022-08-11T04:29:55;5.40;;;3.60;;
2624;SDS011;1322;53.256;10.386;2022-08-11T04:35:38;5.33;;;3.97;;
2624;SDS011;1322;53.256;10.386;2022-08-11T04:56:34;7.60;;;4.00;;
2624;SDS011;1322;53.256;10.386;2022-08-11T04:59:29;10.70;;;4.30;;
2624;SDS011;1322;53.256;10.386;2022-08-11T05:02:41;7.17;;;4.50;;
2624;SDS011;1322;53.256;10.386;2022-08-11T05:05:43;5.33;;;4.30;;
2624;SDS011;1322;53.256;10.386;2022-08-11T05:08:33;4.83;;;3.50;;
2624;SDS011;1322;53.256;10.386;2022-08-11T05:17:03;4.20;;;3.80;;
2624;SDS011;1322;53.256;10.386;2022-08-11T05:19:53;4.80;;;3.70;;
2624;SDS011;1322;53.256;10.386;2022-08-11T05:22:37;12.33;;;3.97;;
2624;SDS011;1322;53.256;10.386;2022-08-11T05:25:35;4.40;;;3.60;;
2624;SDS011;1322;53.256;10.386;2022-08-11T05:28:30;4.40;;;4.00;;
2624;SDS011;1322;53.256;10.386;2022-08-11T05:31:16;5.80;;;3.50;;
2624;SDS011;1322;53.256;10.386;2022-08-11T05:34:11;8.33;;;4.43;;
2624;SDS011;1322;53.256;10.386;2022-08-11T05:37:17;7.23;;;3.87;;
2624;SDS011;1322;53.256;10.386;2022-08-11T05:39:45;7.10;;;3.87;;
2624;SDS011;1322;53.256;10.386;2022-08-11T05:42:32;5.77;;;3.90;;
2624;SDS011;1322;53.256;10.386;2022-08-11T05:45:21;5.20;;;3.53;;
2624;SDS011;1322;53.256;10.386;2022-08-11T05:48:06;7.50;;;4.40;;
2624;SDS011;1322;53.256;10.386;2022-08-11T05:50:51;4.70;;;4.30;;
2624;SDS011;1322;53.256;10.386;2022-08-11T05:53:42;8.37;;;3.97;;
2624;SDS011;1322;53.256;10.386;2022-08-11T05:56:51;6.73;;;4.70;;
2624;SDS011;1322;53.256;10.386;2022-08-11T05:59:20;6.43;;;5.20;;
2624;SDS011;1322;53.256;10.386;2022-08-11T06:01:47;5.53;;;4.67;;
2624;SDS011;1322;53.256;10.386;2022-08-11T06:04:19;8.00;;;5.30;;
2624;SDS011;1322;53.256;10.386;2022-08-11T06:09:20;7.10;;;5.90;;
2624;SDS011;1322;53.256;10.386;2022-08-11T06:14:48;8.57;;;5.23;;
2624;SDS011;1322;53.256;10.386;2022-08-11T06:17:24;6.80;;;4.90;;
2624;SDS011;1322;53.256;10.386;2022-08-11T06:19:57;6.73;;;3.80;;
2624;SDS011;1322;53.256;10.386;2022-08-11T06:22:28;6.70;;;4.13;;
2624;SDS011;1322;53.256;10.386;2022-08-11T06:24:58;6.20;;;3.87;;
2624;SDS011;1322;53.256;10.386;2022-08-11T06:27:26;7.13;;;4.40;;
2624;SDS011;1322;53.256;10.386;2022-08-11T06:29:55;9.70;;;8.47;;
2624;SDS011;1322;53.256;10.386;2022-08-11T06:32:23;7.77;;;6.67;;
2624;SDS011;1322;53.256;10.386;2022-08-11T06:35:09;6.43;;;4.37;;
2624;SDS011;1322;53.256;10.386;2022-08-11T06:42:59;4.80;;;3.57;;
2624;SDS011;1322;53.256;10.386;2022-08-11T06:45:32;4.50;;;3.10;;
2624;SDS011;1322;53.256;10.386;2022-08-11T06:48:01;6.10;;;3.40;;
2624;SDS011;1322;53.256;10.386;2022-08-11T06:50:30;5.50;;;3.50;;
2624;SDS011;1322;53.256;10.386;2022-08-11T06:53:16;8.80;;;3.50;;
2624;SDS011;1322;53.256;10.386;2022-08-11T06:55:44;4.00;;;3.27;;
2624;SDS011;1322;53.256;10.386;2022-08-11T06:58:32;6.63;;;3.30;;
2624;SDS011;1322;53.256;10.386;2022-08-11T07:01:22;4.07;;;3.40;;
2624;SDS011;1322;53.256;10.386;2022-08-11T07:03:58;6.90;;;3.67;;
2624;SDS011;1322;53.256;10.386;2022-08-11T07:06:38;3.97;;;3.23;;
2624;SDS011;1322;53.256;10.386;2022-08-11T07:12:13;5.33;;;3.27;;
2624;SDS011;1322;53.256;10.386;2022-08-11T07:15:17;4.70;;;3.33;;
2624;SDS011;1322;53.256;10.386;2022-08-11T07:18:02;6.63;;;3.13;;
2624;SDS011;1322;53.256;10.386;2022-08-11T07:20:49;3.37;;;3.07;;
2624;SDS011;1322;53.256;10.386;2022-08-11T07:23:35;6.10;;;3.30;;
2624;SDS011;1322;53.256;10.386;2022-08-11T07:26:20;3.73;;;3.30;;
2624;SDS011;1322;53.256;10.386;2022-08-11T07:29:08;8.43;;;3.53;;
2624;SDS011;1322;53.256;10.386;2022-08-11T07:31:37;3.97;;;2.93;;
2624;SDS011;1322;53.256;10.386;2022-08-11T07:34:20;4.67;;;3.23;;
2624;SDS011;1322;53.256;10.386;2022-08-11T07:36:59;5.53;;;3.83;;
2624;SDS011;1322;53.256;10.386;2022-08-11T07:39:32;3.87;;;3.30;;
2624;SDS011;1322;53.256;10.386;2022-08-11T07:42:08;4.93;;;2.87;;
2624;SDS011;1322;53.256;10.386;2022-08-11T07:44:36;5.77;;;3.20;;
2624;SDS011;1322;53.256;10.386;2022-08-11T07:47:24;5.00;;;3.23;;
2624;SDS011;1322;53.256;10.386;2022-08-11T07:50:09;3.70;;;2.87;;
2624;SDS011;1322;53.256;10.386;2022-08-11T07:52:55;5.90;;;4.70;;
2624;SDS011;1322;53.256;10.386;2022-08-11T07:55:23;17.20;;;11.00;;
2624;SDS011;1322;53.256;10.386;2022-08-11T07:57:49;8.87;;;3.93;;
2624;SDS011;1322;53.256;10.386;2022-08-11T08:00:38;5.30;;;3.40;;
2624;SDS011;1322;53.256;10.386;2022-08-11T08:03:26;6.30;;;3.67;;
2624;SDS011;1322;53.256;10.386;2022-08-11T08:06:13;7.00;;;2.53;;
2624;SDS011;1322;53.256;10.386;2022-08-11T08:09:00;4.97;;;3.60;;
2624;SDS011;1322;53.256;10.386;2022-08-11T08:11:45;5.83;;;2.97;;
2624;SDS011;1322;53.256;10.386;2022-08-11T08:14:30;5.60;;;2.70;;
2624;SDS011;1322;53.256;10.386;2022-08-11T08:17:14;5.87;;;3.40;;
2624;SDS011;1322;53.256;10.386;2022-08-11T08:19:59;3.03;;;2.73;;
2624;SDS011;1322;53.256;10.386;2022-08-11T08:22:27;6.67;;;3.23;;
2624;SDS011;1322;53.256;10.386;2022-08-11T08:24:54;4.37;;;3.00;;
2624;SDS011;1322;53.256;10.386;2022-08-11T08:27:20;4.27;;;2.87;;
2624;SDS011;1322;53.256;10.386;2022-08-11T08:29:49;3.53;;;3.13;;
2624;SDS011;1322;53.256;10.386;2022-08-11T08:32:33;3.40;;;2.90;;
2624;SDS011;1322;53.256;10.386;2022-08-11T08:35:04;6.70;;;2.87;;
2624;SDS011;1322;53.256;10.386;2022-08-11T08:37:31;5.33;;;3.30;;
2624;SDS011;1322;53.256;10.386;2022-08-11T08:39:57;5.07;;;3.23;;
2624;SDS011;1322;53.256;10.386;2022-08-11T08:42:24;5.30;;;3.03;;
2624;SDS011;1322;53.256;10.386;2022-08-11T08:44:57;4.47;;;2.70;;
2624;SDS011;1322;53.256;10.386;2022-08-11T08:47:23;5.70;;;2.70;;
2624;SDS011;1322;53.256;10.386;2022-08-11T08:49:51;4.00;;;2.80;;
2624;SDS011;1322;53.256;10.386;2022-08-11T08:52:23;2.80;;;2.40;;
2624;SDS011;1322;53.256;10.386;2022-08-11T08:54:51;6.20;;;3.23;;
2624;SDS011;1322;53.256;10.386;2022-08-11T08:57:25;3.63;;;2.47;;
2624;SDS011;1322;53.256;10.386;2022-08-11T08:59:52;6.57;;;3.10;;
2624;SDS011;1322;53.256;10.386;2022-08-11T09:02:22;5.93;;;2.90;;
2624;SDS011;1322;53.256;10.386;2022-08-11T09:04:49;6.27;;;3.20;;
2624;SDS011;1322;53.256;10.386;2022-08-11T09:07:16;5.40;;;3.33;;
2624;SDS011;1322;53.256;10.386;2022-08-11T09:09:48;3.10;;;2.80;;
2624;SDS011;1322;53.256;10.386;2022-08-11T09:12:15;3.93;;;2.37;;
2624;SDS011;1322;53.256;10.386;2022-08-11T09:14:46;2.77;;;2.57;;
2624;SDS011;1322;53.256;10.386;2022-08-11T09:20:18;7.13;;;3.00;;
2624;SDS011;1322;53.256;10.386;2022-08-11T09:22:52;4.37;;;2.27;;
2624;SDS011;1322;53.256;10.386;2022-08-11T09:25:40;13.30;;;3.70;;
2624;SDS011;1322;53.256;10.386;2022-08-11T09:28:25;3.83;;;2.50;;
2624;SDS011;1322;53.256;10.386;2022-08-11T09:30:54;3.27;;;2.97;;
2624;SDS011;1322;53.256;10.386;2022-08-11T09:33:22;6.50;;;3.30;;
2624;SDS011;1322;53.256;10.386;2022-08-11T09:35:49;2.97;;;2.60;;
2624;SDS011;1322;53.256;10.386;2022-08-11T09:38:16;5.23;;;3.07;;
2624;SDS011;1322;53.256;10.386;2022-08-11T09:41:03;4.70;;;3.40;;
2624;SDS011;1322;53.256;10.386;2022-08-11T09:43:32;5.17;;;3.30;;
2624;SDS011;1322;53.256;10.386;2022-08-11T09:46:22;3.83;;;2.87;;
2624;SDS011;1322;53.256;10.386;2022-08-11T09:48:51;4.33;;;3.70;;
2624;SDS011;1322;53.256;10.386;2022-08-11T09:51:21;6.45;;;2.63;;
2624;SDS011;1322;53.256;10.386;2022-08-11T09:53:47;8.15;;;2.83;;
2624;SDS011;1322;53.256;10.386;2022-08-11T09:56:14;6.85;;;3.17;;
2624;SDS011;1322;53.256;10.386;2022-08-11T09:59:01;3.30;;;3.00;;
2624;SDS011;1322;53.256;10.386;2022-08-11T10:01:42;3.50;;;2.90;;
2624;SDS011;1322;53.256;10.386;2022-08-11T10:04:11;7.43;;;2.47;;
2624;SDS011;1322;53.256;10.386;2022-08-11T10:06:43;3.00;;;2.70;;
2624;SDS011;1322;53.256;10.386;2022-08-11T10:09:43;5.13;;;2.63;;
2624;SDS011;1322;53.256;10.386;2022-08-11T10:12:37;6.72;;;3.38;;
2624;SDS011;1322;53.256;10.386;2022-08-11T10:15:08;5.05;;;3.30;;
2624;SDS011;1322;53.256;10.386;2022-08-11T10:18:13;3.65;;;3.13;;
2624;SDS011;1322;53.256;10.386;2022-08-11T10:26:47;6.75;;;3.03;;
2624;SDS011;1322;53.256;10.386;2022-08-11T10:29:18;3.63;;;2.90;;
2624;SDS011;1322;53.256;10.386;2022-08-11T10:32:10;3.97;;;3.50;;
2624;SDS011;1322;53.256;10.386;2022-08-11T10:34:57;3.78;;;2.58;;
2624;SDS011;1322;53.256;10.386;2022-08-11T10:37:44;2.95;;;2.65;;
2624;SDS011;1322;53.256;10.386;2022-08-11T10:40:15;7.38;;;3.10;;
2624;SDS011;1322;53.256;10.386;2022-08-11T10:42:46;4.25;;;2.45;;
2624;SDS011;1322;53.256;10.386;2022-08-11T10:45:30;3.40;;;2.58;;
2624;SDS011;1322;53.256;10.386;2022-08-11T10:48:18;4.00;;;3.50;;
2624;SDS011;1322;53.256;10.386;2022-08-11T10:50:46;4.75;;;3.20;;
2624;SDS011;1322;53.256;10.386;2022-08-11T10:53:33;7.35;;;3.33;;
2624;SDS011;1322;53.256;10.386;2022-08-11T10:56:19;6.63;;;3.13;;
2624;SDS011;1322;53.256;10.386;2022-08-11T10:59:07;4.20;;;2.72;;
2624;SDS011;1322;53.256;10.386;2022-08-11T11:01:34;5.63;;;3.22;;
2624;SDS011;1322;53.256;10.386;2022-08-11T11:04:11;2.78;;;2.58;;
2624;SDS011;1322;53.256;10.386;2022-08-11T11:09:23;3.40;;;2.83;;
2624;SDS011;1322;53.256;10.386;2022-08-11T11:11:51;5.00;;;3.10;;
2624;SDS011;1322;53.256;10.386;2022-08-11T11:14:39;3.55;;;2.72;;
2624;SDS011;1322;53.256;10.386;2022-08-11T11:17:26;3.83;;;2.67;;
2624;SDS011;1322;53.256;10.386;2022-08-11T11:20:22;3.15;;;2.85;;
2624;SDS011;1322;53.256;10.386;2022-08-11T11:22:52;4.05;;;2.90;;
2624;SDS011;1322;53.256;10.386;2022-08-11T11:25:45;3.78;;;2.88;;
2624;SDS011;1322;53.256;10.386;2022-08-11T11:31:31;4.30;;;2.97;;
2624;SDS011;1322;53.256;10.386;2022-08-11T11:36:54;3.35;;;3.00;;
2624;SDS011;1322;53.256;10.386;2022-08-11T11:39:25;6.82;;;2.50;;
2624;SDS011;1322;53.256;10.386;2022-08-11T11:41:56;4.07;;;2.67;;
2624;SDS011;1322;53.256;10.386;2022-08-11T11:44:24;4.25;;;2.70;;
2624;SDS011;1322;53.256;10.386;2022-08-11T11:46:51;3.13;;;2.70;;
2624;SDS011;1322;53.256;10.386;2022-08-11T11:49:19;5.88;;;3.10;;
2624;SDS011;1322;53.256;10.386;2022-08-11T11:51:48;11.75;;;2.95;;
2624;SDS011;1322;53.256;10.386;2022-08-11T11:54:20;2.80;;;2.60;;
2624;SDS011;1322;53.256;10.386;2022-08-11T11:56:53;3.40;;;3.10;;
2624;SDS011;1322;53.256;10.386;2022-08-11T11:59:24;3.95;;;2.90;;
2624;SDS011;1322;53.256;10.386;2022-08-11T12:02:12;3.40;;;2.72;;
2624;SDS011;1322;53.256;10.386;2022-08-11T12:04:40;4.68;;;2.78;;
2624;SDS011;1322;53.256;10.386;2022-08-11T12:07:09;4.05;;;2.75;;
2624;SDS011;1322;53.256;10.386;2022-08-11T12:09:54;3.85;;;2.65;;
2624;SDS011;1322;53.256;10.386;2022-08-11T12:12:22;3.38;;;2.83;;
2624;SDS011;1322;53.256;10.386;2022-08-11T12:15:07;4.65;;;2.85;;
2624;SDS011;1322;53.256;10.386;2022-08-11T12:17:33;5.60;;;3.15;;
2624;SDS011;1322;53.256;10.386;2022-08-11T12:20:00;6.93;;;2.85;;
2624;SDS011;1322;53.256;10.386;2022-08-11T12:22:27;2.75;;;2.25;;
2624;SDS011;1322;53.256;10.386;2022-08-11T12:25:12;5.82;;;2.58;;
2624;SDS011;1322;53.256;10.386;2022-08-11T12:27:57;3.85;;;2.97;;
2624;SDS011;1322;53.256;10.386;2022-08-11T12:30:23;4.03;;;2.67;;
2624;SDS011;1322;53.256;10.386;2022-08-11T12:32:48;2.78;;;2.58;;
2624;SDS011;1322;53.256;10.386;2022-08-11T12:35:15;4.00;;;1.92;;
2624;SDS011;1322;53.256;10.386;2022-08-11T12:37:44;4.45;;;2.58;;
2624;SDS011;1322;53.256;10.386;2022-08-11T12:40:14;2.22;;;2.03;;
2624;SDS011;1322;53.256;10.386;2022-08-11T12:43:06;2.63;;;1.98;;
2624;SDS011;1322;53.256;10.386;2022-08-11T12:45:56;2.47;;;2.22;;
2624;SDS011;1322;53.256;10.386;2022-08-11T12:48:30;2.80;;;2.42;;
2624;SDS011;1322;53.256;10.386;2022-08-11T12:51:19;3.03;;;2.55;;
2624;SDS011;1322;53.256;10.386;2022-08-11T12:54:13;2.70;;;2.50;;
2624;SDS011;1322;53.256;10.386;2022-08-11T12:56:57;8.07;;;2.13;;
2624;SDS011;1322;53.256;10.386;2022-08-11T12:59:43;3.83;;;1.95;;
2624;SDS011;1322;53.256;10.386;2022-08-11T13:02:28;3.53;;;2.50;;
2624;SDS011;1322;53.256;10.386;2022-08-11T13:05:13;3.80;;;2.65;;
2624;SDS011;1322;53.256;10.386;2022-08-11T13:07:41;5.55;;;2.55;;
2624;SDS011;1322;53.256;10.386;2022-08-11T13:10:08;3.08;;;2.30;;
2624;SDS011;1322;53.256;10.386;2022-08-11T13:12:35;3.35;;;2.38;;
2624;SDS011;1322;53.256;10.386;2022-08-11T13:15:15;2.83;;;2.30;;
2624;SDS011;1322;53.256;10.386;2022-08-11T13:17:43;2.67;;;2.17;;
2624;SDS011;1322;53.256;10.386;2022-08-11T13:20:11;2.75;;;2.08;;
2624;SDS011;1322;53.256;10.386;2022-08-11T13:22:38;4.03;;;2.30;;
2624;SDS011;1322;53.256;10.386;2022-08-11T13:25:09;6.55;;;2.60;;
2624;SDS011;1322;53.256;10.386;2022-08-11T13:27:37;5.03;;;2.00;;
2624;SDS011;1322;53.256;10.386;2022-08-11T13:30:03;4.00;;;2.47;;
2624;SDS011;1322;53.256;10.386;2022-08-11T13:32:48;2.67;;;2.03;;
2624;SDS011;1322;53.256;10.386;2022-08-11T13:35:15;3.53;;;2.30;;
2624;SDS011;1322;53.256;10.386;2022-08-11T13:37:43;3.15;;;1.90;;
2624;SDS011;1322;53.256;10.386;2022-08-11T13:40:11;2.25;;;2.05;;
2624;SDS011;1322;53.256;10.386;2022-08-11T13:42:38;2.28;;;2.08;;
2624;SDS011;1322;53.256;10.386;2022-08-11T13:45:05;3.30;;;2.05;;
2624;SDS011;1322;53.256;10.386;2022-08-11T13:47:32;4.65;;;1.80;;
2624;SDS011;1322;53.256;10.386;2022-08-11T13:49:59;2.22;;;1.85;;
2624;SDS011;1322;53.256;10.386;2022-08-11T13:52:25;2.33;;;1.90;;
2624;SDS011;1322;53.256;10.386;2022-08-11T13:54:52;2.30;;;1.90;;
2624;SDS011;1322;53.256;10.386;2022-08-11T13:57:19;2.08;;;1.83;;
2624;SDS011;1322;53.256;10.386;2022-08-11T13:59:46;3.08;;;2.47;;
2624;SDS011;1322;53.256;10.386;2022-08-11T14:02:19;2.45;;;2.05;;
2624;SDS011;1322;53.256;10.386;2022-08-11T14:04:57;2.28;;;1.98;;
2624;SDS011;1322;53.256;10.386;2022-08-11T14:07:34;2.50;;;2.30;;
2624;SDS011;1322;53.256;10.386;2022-08-11T14:10:03;3.85;;;1.88;;
2624;SDS011;1322;53.256;10.386;2022-08-11T14:12:31;2.45;;;1.90;;
2624;SDS011;1322;53.256;10.386;2022-08-11T14:15:31;2.75;;;1.80;;
2624;SDS011;1322;53.256;10.386;2022-08-11T14:18:03;3.33;;;1.58;;
2624;SDS011;1322;53.256;10.386;2022-08-11T14:20:32;2.65;;;2.00;;
2624;SDS011;1322;53.256;10.386;2022-08-11T14:24:05;2.17;;;1.65;;
2624;SDS011;1322;53.256;10.386;2022-08-11T14:26:10;2.17;;;1.83;;
2624;SDS011;1322;53.256;10.386;2022-08-11T14:28:47;3.25;;;2.00;;
2624;SDS011;1322;53.256;10.386;2022-08-11T14:31:17;2.03;;;1.70;;
2624;SDS011;1322;53.256;10.386;2022-08-11T14:33:43;1.95;;;1.73;;
2624;SDS011;1322;53.256;10.386;2022-08-11T14:36:11;2.35;;;1.60;;
2624;SDS011;1322;53.256;10.386;2022-08-11T14:38:37;2.92;;;1.90;;
2624;SDS011;1322;53.256;10.386;2022-08-11T14:41:05;1.98;;;1.70;;
2624;SDS011;1322;53.256;10.386;2022-08-11T14:43:51;2.03;;;1.73;;
2624;SDS011;1322;53.256;10.386;2022-08-11T14:46:38;3.95;;;1.73;;
2624;SDS011;1322;53.256;10.386;2022-08-11T14:49:23;1.80;;;1.45;;
2624;SDS011;1322;53.256;10.386;2022-08-11T14:51:50;2.42;;;1.63;;
2624;SDS011;1322;53.256;10.386;2022-08-11T14:54:24;2.17;;;1.60;;
2624;SDS011;1322;53.256;10.386;2022-08-11T14:57:11;4.82;;;1.65;;
2624;SDS011;1322;53.256;10.386;2022-08-11T14:59:37;2.45;;;1.85;;
2624;SDS011;1322;53.256;10.386;2022-08-11T15:02:03;2.85;;;2.25;;
2624;SDS011;1322;53.256;10.386;2022-08-11T15:04:49;3.80;;;2.00;;
2624;SDS011;1322;53.256;10.386;2022-08-11T15:07:15;2.42;;;1.50;;
2624;SDS011;1322;53.256;10.386;2022-08-11T15:09:42;1.98;;;1.77;;
2624;SDS011;1322;53.256;10.386;2022-08-11T15:12:09;2.00;;;1.65;;
2624;SDS011;1322;53.256;10.386;2022-08-11T15:14:45;2.80;;;1.70;;
2624;SDS011;1322;53.256;10.386;2022-08-11T15:17:30;1.80;;;1.20;;
2624;SDS011;1322;53.256;10.386;2022-08-11T15:19:59;2.10;;;1.52;;
2624;SDS011;1322;53.256;10.386;2022-08-11T15:22:46;2.30;;;1.80;;
2624;SDS011;1322;53.256;10.386;2022-08-11T15:25:31;3.88;;;1.83;;
2624;SDS011;1322;53.256;10.386;2022-08-11T15:27:58;2.03;;;1.60;;
2624;SDS011;1322;53.256;10.386;2022-08-11T15:30:50;2.33;;;1.77;;
2624;SDS011;1322;53.256;10.386;2022-08-11T15:33:37;1.67;;;1.55;;
2624;SDS011;1322;53.256;10.386;2022-08-11T15:36:23;7.13;;;2.05;;
2624;SDS011;1322;53.256;10.386;2022-08-11T15:39:16;4.53;;;1.60;;
2624;SDS011;1322;53.256;10.386;2022-08-11T15:42:06;3.35;;;1.77;;
2624;SDS011;1322;53.256;10.386;2022-08-11T15:44:57;1.80;;;1.40;;
2624;SDS011;1322;53.256;10.386;2022-08-11T15:47:48;2.35;;;1.65;;
2624;SDS011;1322;53.256;10.386;2022-08-11T15:50:24;4.00;;;2.30;;
2624;SDS011;1322;53.256;10.386;2022-08-11T15:52:58;2.42;;;2.00;;
2624;SDS011;1322;53.256;10.386;2022-08-11T15:55:32;2.92;;;1.95;;
2624;SDS011;1322;53.256;10.386;2022-08-11T15:58:01;2.45;;;1.92;;
2624;SDS011;1322;53.256;10.386;2022-08-11T16:00:46;1.98;;;1.77;;
2624;SDS011;1322;53.256;10.386;2022-08-11T16:03:34;3.75;;;1.40;;
2624;SDS011;1322;53.256;10.386;2022-08-11T16:06:25;2.60;;;2.40;;
2624;SDS011;1322;53.256;10.386;2022-08-11T16:08:51;4.60;;;1.85;;
2624;SDS011;1322;53.256;10.386;2022-08-11T16:11:20;2.78;;;1.92;;
2624;SDS011;1322;53.256;10.386;2022-08-11T16:13:46;6.05;;;1.88;;
2624;SDS011;1322;53.256;10.386;2022-08-11T16:16:31;2.58;;;1.98;;
2624;SDS011;1322;53.256;10.386;2022-08-11T16:18:58;1.90;;;1.60;;
2624;SDS011;1322;53.256;10.386;2022-08-11T16:21:31;4.47;;;2.15;;
2624;SDS011;1322;53.256;10.386;2022-08-11T16:23:59;2.90;;;1.50;;
2624;SDS011;1322;53.256;10.386;2022-08-11T16:26:28;3.47;;;1.70;;
2624;SDS011;1322;53.256;10.386;2022-08-11T16:28:56;9.23;;;2.65;;
2624;SDS011;1322;53.256;10.386;2022-08-11T16:31:24;2.00;;;1.63;;
2624;SDS011;1322;53.256;10.386;2022-08-11T16:33:52;4.28;;;2.20;;
2624;SDS011;1322;53.256;10.386;2022-08-11T16:36:19;2.13;;;1.80;;
2624;SDS011;1322;53.256;10.386;2022-08-11T16:39:06;2.38;;;1.50;;
2624;SDS011;1322;53.256;10.386;2022-08-11T16:41:34;4.50;;;1.85;;
2624;SDS011;1322;53.256;10.386;2022-08-11T16:44:19;3.97;;;1.83;;
2624;SDS011;1322;53.256;10.386;2022-08-11T16:47:05;3.17;;;1.90;;
2624;SDS011;1322;53.256;10.386;2022-08-11T16:49:41;4.57;;;1.77;;
2624;SDS011;1322;53.256;10.386;2022-08-11T16:52:10;6.28;;;2.05;;
2624;SDS011;1322;53.256;10.386;2022-08-11T16:54:36;3.63;;;1.48;;
2624;SDS011;1322;53.256;10.386;2022-08-11T16:57:07;3.08;;;2.25;;
2624;SDS011;1322;53.256;10.386;2022-08-11T17:00:01;2.75;;;1.83;;
2624;SDS011;1322;53.256;10.386;2022-08-11T17:02:35;2.40;;;1.60;;
2624;SDS011;1322;53.256;10.386;2022-08-11T17:05:24;2.60;;;1.90;;
2624;SDS011;1322;53.256;10.386;2022-08-11T17:08:08;3.15;;;2.08;;
2624;SDS011;1322;53.256;10.386;2022-08-11T17:10:57;4.20;;;1.80;;
2624;SDS011;1322;53.256;10.386;2022-08-11T17:13:49;4.07;;;1.70;;
2624;SDS011;1322;53.256;10.386;2022-08-11T17:16:32;5.35;;;1.77;;
2624;SDS011;1322;53.256;10.386;2022-08-11T17:19:13;2.33;;;1.70;;
2624;SDS011;1322;53.256;10.386;2022-08-11T17:21:50;3.60;;;2.20;;
2624;SDS011;1322;53.256;10.386;2022-08-11T17:24:45;4.50;;;2.27;;
2624;SDS011;1322;53.256;10.386;2022-08-11T17:27:15;2.97;;;1.65;;
2624;SDS011;1322;53.256;10.386;2022-08-11T17:32:16;4.28;;;2.60;;
2624;SDS011;1322;53.256;10.386;2022-08-11T17:35:04;3.25;;;1.98;;
2624;SDS011;1322;53.256;10.386;2022-08-11T17:38:09;2.43;;;1.97;;
2624;SDS011;1322;53.256;10.386;2022-08-11T17:40:42;3.27;;;2.03;;
2624;SDS011;1322;53.256;10.386;2022-08-11T17:43:29;6.23;;;2.07;;
2624;SDS011;1322;53.256;10.386;2022-08-11T17:46:15;5.13;;;2.03;;
2624;SDS011;1322;53.256;10.386;2022-08-11T17:49:00;4.53;;;2.03;;
2624;SDS011;1322;53.256;10.386;2022-08-11T17:51:28;2.67;;;1.73;;
2624;SDS011;1322;53.256;10.386;2022-08-11T17:54:13;2.93;;;1.40;;
2624;SDS011;1322;53.256;10.386;2022-08-11T17:56:58;4.63;;;2.27;;
2624;SDS011;1322;53.256;10.386;2022-08-11T17:59:43;10.00;;;1.80;;
2624;SDS011;1322;53.256;10.386;2022-08-11T18:02:18;2.90;;;1.40;;
2624;SDS011;1322;53.256;10.386;2022-08-11T18:05:04;3.87;;;1.60;;
2624;SDS011;1322;53.256;10.386;2022-08-11T18:07:30;4.30;;;1.67;;
2624;SDS011;1322;53.256;10.386;2022-08-11T18:10:17;2.17;;;1.60;;
2624;SDS011;1322;53.256;10.386;2022-08-11T18:13:02;3.23;;;1.80;;
2624;SDS011;1322;53.256;10.386;2022-08-11T18:15:48;2.50;;;1.77;;
2624;SDS011;1322;53.256;10.386;2022-08-11T18:18:33;2.27;;;1.67;;
2624;SDS011;1322;53.256;10.386;2022-08-11T18:21:17;6.10;;;2.53;;
2624;SDS011;1322;53.256;10.386;2022-08-11T18:24:07;3.93;;;2.40;;
2624;SDS011;1322;53.256;10.386;2022-08-11T18:26:54;4.10;;;1.93;;
2624;SDS011;1322;53.256;10.386;2022-08-11T18:29:41;3.70;;;2.00;;
2624;SDS011;1322;53.256;10.386;2022-08-11T18:32:28;3.40;;;2.03;;
2624;SDS011;1322;53.256;10.386;2022-08-11T18:35:17;10.60;;;1.77;;
2624;SDS011;1322;53.256;10.386;2022-08-11T18:38:03;2.97;;;2.10;;
2624;SDS011;1322;53.256;10.386;2022-08-11T18:40:49;2.60;;;1.70;;
2624;SDS011;1322;53.256;10.386;2022-08-11T18:43:36;4.67;;;2.00;;
2624;SDS011;1322;53.256;10.386;2022-08-11T18:46:23;3.10;;;2.10;;
2624;SDS011;1322;53.256;10.386;2022-08-11T18:49:14;3.17;;;2.13;;
2624;SDS011;1322;53.256;10.386;2022-08-11T18:52:00;7.10;;;1.90;;
2624;SDS011;1322;53.256;10.386;2022-08-11T18:54:47;2.90;;;1.80;;
2624;SDS011;1322;53.256;10.386;2022-08-11T18:57:34;3.20;;;2.13;;
2624;SDS011;1322;53.256;10.386;2022-08-11T19:00:22;4.40;;;1.80;;
2624;SDS011;1322;53.256;10.386;2022-08-11T19:03:08;6.37;;;1.93;;
2624;SDS011;1322;53.256;10.386;2022-08-11T19:05:54;5.37;;;2.30;;
2624;SDS011;1322;53.256;10.386;2022-08-11T19:08:41;3.10;;;2.73;;
2624;SDS011;1322;53.256;10.386;2022-08-11T19:11:34;2.00;;;1.70;;
2624;SDS011;1322;53.256;10.386;2022-08-11T19:14:20;6.63;;;3.70;;
2624;SDS011;1322;53.256;10.386;2022-08-11T19:17:07;3.70;;;2.40;;
2624;SDS011;1322;53.256;10.386;2022-08-11T19:19:53;12.87;;;2.87;;
2624;SDS011;1322;53.256;10.386;2022-08-11T19:22:39;9.00;;;3.80;;
2624;SDS011;1322;53.256;10.386;2022-08-11T19:25:23;4.70;;;3.37;;
2624;SDS011;1322;53.256;10.386;2022-08-11T19:28:13;8.33;;;5.00;;
2624;SDS011;1322;53.256;10.386;2022-08-11T19:30:59;4.67;;;2.93;;
2624;SDS011;1322;53.256;10.386;2022-08-11T19:33:44;5.57;;;3.30;;
2624;SDS011;1322;53.256;10.386;2022-08-11T19:36:29;5.00;;;2.70;;
2624;SDS011;1322;53.256;10.386;2022-08-11T19:39:15;5.23;;;2.00;;
2624;SDS011;1322;53.256;10.386;2022-08-11T19:42:01;4.10;;;2.27;;
2624;SDS011;1322;53.256;10.386;2022-08-11T19:44:46;3.60;;;2.10;;
2624;SDS011;1322;53.256;10.386;2022-08-11T19:47:32;3.57;;;2.00;;
2624;SDS011;1322;53.256;10.386;2022-08-11T19:50:17;6.13;;;2.63;;